sensor_id;sensor_type;location;lat;lon;timestamp;temperature;humidity
22098;DHT22;11215;51.938;8.464;2022-10-16T00:00:41;17.30;70.40
22098;DHT22;11215;51.938;8.464;2022-10-16T00:03:08;17.30;70.50
22098;DHT22;11215;51.938;8.464;2022-10-16T00:05:41;17.20;70.50
22098;DHT22;11215;51.938;8.464;2022-10-16T00:08:08;17.20;70.60
22098;DHT22;11215;51.938;8.464;2022-10-16T00:10:34;17.20;70.40
22098;DHT22;11215;51.938;8.464;2022-10-16T00:13:00;17.20;70.40
22098;DHT22;11215;51.938;8.464;2022-10-16T00:15:26;17.20;70.50
22098;DHT22;11215;51.938;8.464;2022-10-16T00:17:52;17.20;70.60
22098;DHT22;11215;51.938;8.464;2022-10-16T00:20:17;17.20;70.70
22098;DHT22;11215;51.938;8.464;2022-10-16T00:22:43;17.10;70.50
22098;DHT22;11215;51.938;8.464;2022-10-16T00:25:08;17.20;70.70
22098;DHT22;11215;51.938;8.464;2022-10-16T00:27:34;17.10;70.60
22098;DHT22;11215;51.938;8.464;2022-10-16T00:30:00;17.10;70.70
22098;DHT22;11215;51.938;8.464;2022-10-16T00:32:26;17.10;70.70
22098;DHT22;11215;51.938;8.464;2022-10-16T00:34:51;17.10;70.80
22098;DHT22;11215;51.938;8.464;2022-10-16T00:37:19;17.10;70.80
22098;DHT22;11215;51.938;8.464;2022-10-16T00:39:45;17.10;70.80
22098;DHT22;11215;51.938;8.464;2022-10-16T00:42:18;17.10;70.90
22098;DHT22;11215;51.938;8.464;2022-10-16T00:44:53;17.10;71.10
22098;DHT22;11215;51.938;8.464;2022-10-16T00:47:36;17.00;70.90
22098;DHT22;11215;51.938;8.464;2022-10-16T00:50:07;17.00;70.80
22098;DHT22;11215;51.938;8.464;2022-10-16T00:52:33;17.00;70.80
22098;DHT22;11215;51.938;8.464;2022-10-16T00:55:00;17.00;70.80
22098;DHT22;11215;51.938;8.464;2022-10-16T00:57:27;17.00;70.80
22098;DHT22;11215;51.938;8.464;2022-10-16T00:59:53;17.00;70.80
22098;DHT22;11215;51.938;8.464;2022-10-16T01:02:19;16.90;70.70
22098;DHT22;11215;51.938;8.464;2022-10-16T01:04:50;17.00;70.80
22098;DHT22;11215;51.938;8.464;2022-10-16T01:15:31;16.80;70.70
22098;DHT22;11215;51.938;8.464;2022-10-16T01:18:16;16.80;70.70
22098;DHT22;11215;51.938;8.464;2022-10-16T01:23:37;16.80;70.90
22098;DHT22;11215;51.938;8.464;2022-10-16T01:28:56;16.70;70.90
22098;DHT22;11215;51.938;8.464;2022-10-16T01:31:26;16.70;70.90
22098;DHT22;11215;51.938;8.464;2022-10-16T01:34:05;16.70;70.90
22098;DHT22;11215;51.938;8.464;2022-10-16T01:36:38;16.60;71.10
22098;DHT22;11215;51.938;8.464;2022-10-16T01:39:07;16.60;71.10
22098;DHT22;11215;51.938;8.464;2022-10-16T01:41:48;16.60;70.90
22098;DHT22;11215;51.938;8.464;2022-10-16T01:44:34;16.60;71.20
22098;DHT22;11215;51.938;8.464;2022-10-16T01:47:02;16.50;71.30
22098;DHT22;11215;51.938;8.464;2022-10-16T01:49:32;16.50;71.10
22098;DHT22;11215;51.938;8.464;2022-10-16T01:52:00;16.50;71.10
22098;DHT22;11215;51.938;8.464;2022-10-16T01:54:29;16.50;71.10
22098;DHT22;11215;51.938;8.464;2022-10-16T01:56:57;16.50;71.20
22098;DHT22;11215;51.938;8.464;2022-10-16T01:59:25;16.40;72.00
22098;DHT22;11215;51.938;8.464;2022-10-16T02:01:56;16.40;71.20
22098;DHT22;11215;51.938;8.464;2022-10-16T02:04:32;16.40;71.30
22098;DHT22;11215;51.938;8.464;2022-10-16T02:06:58;16.40;71.50
22098;DHT22;11215;51.938;8.464;2022-10-16T02:09:24;16.40;71.50
22098;DHT22;11215;51.938;8.464;2022-10-16T02:11:53;16.30;71.50
22098;DHT22;11215;51.938;8.464;2022-10-16T02:14:21;16.30;71.70
22098;DHT22;11215;51.938;8.464;2022-10-16T02:16:49;16.30;71.70
22098;DHT22;11215;51.938;8.464;2022-10-16T02:19:17;16.30;71.70
22098;DHT22;11215;51.938;8.464;2022-10-16T02:21:58;16.30;71.80
22098;DHT22;11215;51.938;8.464;2022-10-16T02:32:51;16.20;72.00
22098;DHT22;11215;51.938;8.464;2022-10-16T02:35:20;16.30;71.80
22098;DHT22;11215;51.938;8.464;2022-10-16T02:37:47;16.20;72.00
22098;DHT22;11215;51.938;8.464;2022-10-16T02:40:14;16.20;72.10
22098;DHT22;11215;51.938;8.464;2022-10-16T02:42:40;16.20;72.20
22098;DHT22;11215;51.938;8.464;2022-10-16T02:45:08;16.20;72.50
22098;DHT22;11215;51.938;8.464;2022-10-16T02:47:34;16.20;72.60
22098;DHT22;11215;51.938;8.464;2022-10-16T02:50:00;16.20;72.60
22098;DHT22;11215;51.938;8.464;2022-10-16T02:52:25;16.20;72.70
22098;DHT22;11215;51.938;8.464;2022-10-16T02:54:51;16.20;72.80
22098;DHT22;11215;51.938;8.464;2022-10-16T02:57:17;16.20;72.80
22098;DHT22;11215;51.938;8.464;2022-10-16T02:59:43;16.20;72.80
22098;DHT22;11215;51.938;8.464;2022-10-16T03:02:09;16.20;72.90
22098;DHT22;11215;51.938;8.464;2022-10-16T03:04:35;16.20;72.80
22098;DHT22;11215;51.938;8.464;2022-10-16T03:07:00;16.20;72.60
22098;DHT22;11215;51.938;8.464;2022-10-16T03:09:26;16.20;72.60
22098;DHT22;11215;51.938;8.464;2022-10-16T03:11:51;16.20;72.50
22098;DHT22;11215;51.938;8.464;2022-10-16T03:14:17;16.30;72.50
22098;DHT22;11215;51.938;8.464;2022-10-16T03:16:43;16.30;72.50
22098;DHT22;11215;51.938;8.464;2022-10-16T03:19:08;16.30;72.50
22098;DHT22;11215;51.938;8.464;2022-10-16T03:21:34;16.30;72.60
22098;DHT22;11215;51.938;8.464;2022-10-16T03:23:59;16.20;72.50
22098;DHT22;11215;51.938;8.464;2022-10-16T03:26:25;16.20;72.50
22098;DHT22;11215;51.938;8.464;2022-10-16T03:28:51;16.20;72.50
22098;DHT22;11215;51.938;8.464;2022-10-16T03:31:16;16.20;72.50
22098;DHT22;11215;51.938;8.464;2022-10-16T03:33:42;16.20;72.50
22098;DHT22;11215;51.938;8.464;2022-10-16T03:36:08;16.20;72.60
22098;DHT22;11215;51.938;8.464;2022-10-16T03:38:33;16.20;72.50
22098;DHT22;11215;51.938;8.464;2022-10-16T03:40:59;16.20;72.40
22098;DHT22;11215;51.938;8.464;2022-10-16T03:43:24;16.20;72.30
22098;DHT22;11215;51.938;8.464;2022-10-16T03:45:51;16.20;72.30
22098;DHT22;11215;51.938;8.464;2022-10-16T03:48:17;16.20;72.40
22098;DHT22;11215;51.938;8.464;2022-10-16T03:50:43;16.20;72.50
22098;DHT22;11215;51.938;8.464;2022-10-16T03:53:09;16.20;72.50
22098;DHT22;11215;51.938;8.464;2022-10-16T03:55:35;16.10;72.50
22098;DHT22;11215;51.938;8.464;2022-10-16T03:58:01;16.10;72.70
22098;DHT22;11215;51.938;8.464;2022-10-16T04:00:27;16.10;72.80
22098;DHT22;11215;51.938;8.464;2022-10-16T04:02:52;16.10;72.90
22098;DHT22;11215;51.938;8.464;2022-10-16T04:05:18;16.10;73.00
22098;DHT22;11215;51.938;8.464;2022-10-16T04:07:43;16.10;73.20
22098;DHT22;11215;51.938;8.464;2022-10-16T04:10:09;16.20;73.50
22098;DHT22;11215;51.938;8.464;2022-10-16T04:12:34;16.10;73.50
22098;DHT22;11215;51.938;8.464;2022-10-16T04:15:00;16.10;73.40
22098;DHT22;11215;51.938;8.464;2022-10-16T04:17:26;16.20;73.40
22098;DHT22;11215;51.938;8.464;2022-10-16T04:19:51;16.20;73.40
22098;DHT22;11215;51.938;8.464;2022-10-16T04:22:17;16.20;73.50
22098;DHT22;11215;51.938;8.464;2022-10-16T04:24:42;16.20;73.50
22098;DHT22;11215;51.938;8.464;2022-10-16T04:27:08;16.30;73.70
22098;DHT22;11215;51.938;8.464;2022-10-16T04:29:33;16.30;73.70
22098;DHT22;11215;51.938;8.464;2022-10-16T04:31:59;16.30;73.70
22098;DHT22;11215;51.938;8.464;2022-10-16T04:34:25;16.30;73.60
22098;DHT22;11215;51.938;8.464;2022-10-16T04:36:50;16.30;73.60
22098;DHT22;11215;51.938;8.464;2022-10-16T04:39:16;16.30;73.50
22098;DHT22;11215;51.938;8.464;2022-10-16T04:41:42;16.30;73.50
22098;DHT22;11215;51.938;8.464;2022-10-16T04:44:08;16.30;73.50
22098;DHT22;11215;51.938;8.464;2022-10-16T04:46:33;16.40;73.60
22098;DHT22;11215;51.938;8.464;2022-10-16T04:48:59;16.30;73.50
22098;DHT22;11215;51.938;8.464;2022-10-16T04:51:25;16.40;73.60
22098;DHT22;11215;51.938;8.464;2022-10-16T04:53:51;16.40;73.60
22098;DHT22;11215;51.938;8.464;2022-10-16T04:56:17;16.40;73.60
22098;DHT22;11215;51.938;8.464;2022-10-16T04:58:42;16.40;73.50
22098;DHT22;11215;51.938;8.464;2022-10-16T05:01:08;16.40;73.50
22098;DHT22;11215;51.938;8.464;2022-10-16T05:03:34;16.40;73.60
22098;DHT22;11215;51.938;8.464;2022-10-16T05:05:59;16.40;73.60
22098;DHT22;11215;51.938;8.464;2022-10-16T05:08:25;16.40;73.60
22098;DHT22;11215;51.938;8.464;2022-10-16T05:10:50;16.40;73.60
22098;DHT22;11215;51.938;8.464;2022-10-16T05:13:16;16.40;73.50
22098;DHT22;11215;51.938;8.464;2022-10-16T05:15:42;16.40;73.40
22098;DHT22;11215;51.938;8.464;2022-10-16T05:18:08;16.40;73.30
22098;DHT22;11215;51.938;8.464;2022-10-16T05:20:34;16.40;73.30
22098;DHT22;11215;51.938;8.464;2022-10-16T05:22:59;16.40;73.20
22098;DHT22;11215;51.938;8.464;2022-10-16T05:25:25;16.40;73.20
22098;DHT22;11215;51.938;8.464;2022-10-16T05:27:51;16.40;73.10
22098;DHT22;11215;51.938;8.464;2022-10-16T05:30:17;16.40;73.10
22098;DHT22;11215;51.938;8.464;2022-10-16T05:32:50;16.40;73.00
22098;DHT22;11215;51.938;8.464;2022-10-16T05:35:17;16.40;73.00
22098;DHT22;11215;51.938;8.464;2022-10-16T05:37:43;16.40;72.90
22098;DHT22;11215;51.938;8.464;2022-10-16T05:40:09;16.40;72.90
22098;DHT22;11215;51.938;8.464;2022-10-16T05:42:34;16.30;72.80
22098;DHT22;11215;51.938;8.464;2022-10-16T05:45:00;16.30;72.80
22098;DHT22;11215;51.938;8.464;2022-10-16T05:47:26;16.30;72.80
22098;DHT22;11215;51.938;8.464;2022-10-16T05:49:52;16.30;72.80
22098;DHT22;11215;51.938;8.464;2022-10-16T05:52:17;16.30;72.80
22098;DHT22;11215;51.938;8.464;2022-10-16T05:54:43;16.20;72.60
22098;DHT22;11215;51.938;8.464;2022-10-16T05:57:08;16.20;72.60
22098;DHT22;11215;51.938;8.464;2022-10-16T05:59:34;16.20;72.60
22098;DHT22;11215;51.938;8.464;2022-10-16T06:02:00;16.20;72.60
22098;DHT22;11215;51.938;8.464;2022-10-16T06:04:25;16.20;72.60
22098;DHT22;11215;51.938;8.464;2022-10-16T06:06:51;16.10;72.60
22098;DHT22;11215;51.938;8.464;2022-10-16T06:09:16;16.10;72.60
22098;DHT22;11215;51.938;8.464;2022-10-16T06:11:42;16.10;72.70
22098;DHT22;11215;51.938;8.464;2022-10-16T06:14:08;16.10;72.70
22098;DHT22;11215;51.938;8.464;2022-10-16T06:16:35;16.10;72.70
22098;DHT22;11215;51.938;8.464;2022-10-16T06:19:02;16.10;72.80
22098;DHT22;11215;51.938;8.464;2022-10-16T06:21:29;16.10;72.80
22098;DHT22;11215;51.938;8.464;2022-10-16T06:23:57;16.10;72.80
22098;DHT22;11215;51.938;8.464;2022-10-16T06:26:25;16.10;72.90
22098;DHT22;11215;51.938;8.464;2022-10-16T06:28:53;16.10;73.10
22098;DHT22;11215;51.938;8.464;2022-10-16T06:31:19;16.10;73.10
22098;DHT22;11215;51.938;8.464;2022-10-16T06:33:44;16.10;73.10
22098;DHT22;11215;51.938;8.464;2022-10-16T06:36:15;16.10;73.20
22098;DHT22;11215;51.938;8.464;2022-10-16T06:38:41;16.10;73.40
22098;DHT22;11215;51.938;8.464;2022-10-16T06:41:09;16.10;73.50
22098;DHT22;11215;51.938;8.464;2022-10-16T06:43:36;16.10;73.50
22098;DHT22;11215;51.938;8.464;2022-10-16T06:46:03;16.10;73.70
22098;DHT22;11215;51.938;8.464;2022-10-16T06:48:30;16.10;73.70
22098;DHT22;11215;51.938;8.464;2022-10-16T06:51:06;16.10;73.70
22098;DHT22;11215;51.938;8.464;2022-10-16T06:53:35;16.20;73.80
22098;DHT22;11215;51.938;8.464;2022-10-16T06:56:15;16.20;73.80
22098;DHT22;11215;51.938;8.464;2022-10-16T06:58:41;16.20;74.00
22098;DHT22;11215;51.938;8.464;2022-10-16T07:01:08;16.30;73.80
22098;DHT22;11215;51.938;8.464;2022-10-16T07:03:37;16.20;73.70
22098;DHT22;11215;51.938;8.464;2022-10-16T07:06:04;16.30;73.80
22098;DHT22;11215;51.938;8.464;2022-10-16T07:08:34;16.30;73.80
22098;DHT22;11215;51.938;8.464;2022-10-16T07:11:06;16.30;74.00
22098;DHT22;11215;51.938;8.464;2022-10-16T07:13:40;16.30;73.90
22098;DHT22;11215;51.938;8.464;2022-10-16T07:16:15;16.40;74.10
22098;DHT22;11215;51.938;8.464;2022-10-16T07:21:52;16.40;74.00
22098;DHT22;11215;51.938;8.464;2022-10-16T07:27:19;16.50;73.90
22098;DHT22;11215;51.938;8.464;2022-10-16T07:29:47;16.50;74.10
22098;DHT22;11215;51.938;8.464;2022-10-16T07:32:13;16.50;74.20
22098;DHT22;11215;51.938;8.464;2022-10-16T07:34:39;16.60;74.20
22098;DHT22;11215;51.938;8.464;2022-10-16T07:37:05;16.60;74.30
22098;DHT22;11215;51.938;8.464;2022-10-16T07:39:31;16.70;74.30
22098;DHT22;11215;51.938;8.464;2022-10-16T07:41:57;16.70;74.30
22098;DHT22;11215;51.938;8.464;2022-10-16T07:44:23;16.70;74.30
22098;DHT22;11215;51.938;8.464;2022-10-16T07:46:49;16.80;74.40
22098;DHT22;11215;51.938;8.464;2022-10-16T07:49:15;16.80;74.30
22098;DHT22;11215;51.938;8.464;2022-10-16T07:51:41;16.80;75.00
22098;DHT22;11215;51.938;8.464;2022-10-16T07:54:08;16.90;74.30
22098;DHT22;11215;51.938;8.464;2022-10-16T07:56:35;16.90;74.10
22098;DHT22;11215;51.938;8.464;2022-10-16T07:59:00;17.00;74.00
22098;DHT22;11215;51.938;8.464;2022-10-16T08:01:26;17.00;74.70
22098;DHT22;11215;51.938;8.464;2022-10-16T08:03:52;17.00;73.70
22098;DHT22;11215;51.938;8.464;2022-10-16T08:06:20;17.00;73.60
22098;DHT22;11215;51.938;8.464;2022-10-16T08:08:49;17.00;73.50
22098;DHT22;11215;51.938;8.464;2022-10-16T08:11:15;17.10;73.50
22098;DHT22;11215;51.938;8.464;2022-10-16T08:13:41;17.10;73.50
22098;DHT22;11215;51.938;8.464;2022-10-16T08:16:07;17.10;73.50
22098;DHT22;11215;51.938;8.464;2022-10-16T08:18:34;17.10;73.40
22098;DHT22;11215;51.938;8.464;2022-10-16T08:21:01;17.10;73.50
22098;DHT22;11215;51.938;8.464;2022-10-16T08:23:28;17.20;73.50
22098;DHT22;11215;51.938;8.464;2022-10-16T08:25:55;17.20;73.50
22098;DHT22;11215;51.938;8.464;2022-10-16T08:28:22;17.20;73.50
22098;DHT22;11215;51.938;8.464;2022-10-16T08:30:48;17.20;73.50
22098;DHT22;11215;51.938;8.464;2022-10-16T08:33:14;17.30;73.50
22098;DHT22;11215;51.938;8.464;2022-10-16T08:35:41;17.30;73.50
22098;DHT22;11215;51.938;8.464;2022-10-16T08:38:07;17.40;73.50
22098;DHT22;11215;51.938;8.464;2022-10-16T08:40:35;17.40;73.50
22098;DHT22;11215;51.938;8.464;2022-10-16T08:51:08;17.70;73.00
22098;DHT22;11215;51.938;8.464;2022-10-16T08:53:51;17.70;72.90
22098;DHT22;11215;51.938;8.464;2022-10-16T08:56:18;17.70;72.60
22098;DHT22;11215;51.938;8.464;2022-10-16T08:58:46;17.80;72.90
22098;DHT22;11215;51.938;8.464;2022-10-16T09:01:14;17.90;72.70
22098;DHT22;11215;51.938;8.464;2022-10-16T09:09:28;18.00;72.00
22098;DHT22;11215;51.938;8.464;2022-10-16T09:17:32;18.20;71.80
22098;DHT22;11215;51.938;8.464;2022-10-16T09:23:16;18.30;71.10
22098;DHT22;11215;51.938;8.464;2022-10-16T09:25:46;18.40;71.20
22098;DHT22;11215;51.938;8.464;2022-10-16T09:28:13;18.40;71.40
22098;DHT22;11215;51.938;8.464;2022-10-16T09:30:40;18.50;71.40
22098;DHT22;11215;51.938;8.464;2022-10-16T09:33:06;18.50;71.10
22098;DHT22;11215;51.938;8.464;2022-10-16T09:35:39;18.60;70.90
22098;DHT22;11215;51.938;8.464;2022-10-16T09:38:05;18.60;70.70
22098;DHT22;11215;51.938;8.464;2022-10-16T09:40:38;18.70;70.80
22098;DHT22;11215;51.938;8.464;2022-10-16T09:46:00;18.80;69.00
22098;DHT22;11215;51.938;8.464;2022-10-16T09:48:47;18.80;69.10
22098;DHT22;11215;51.938;8.464;2022-10-16T09:51:24;18.80;68.20
22098;DHT22;11215;51.938;8.464;2022-10-16T09:53:58;18.80;69.10
22098;DHT22;11215;51.938;8.464;2022-10-16T09:56:36;18.90;68.50
22098;DHT22;11215;51.938;8.464;2022-10-16T09:59:12;18.90;67.70
22098;DHT22;11215;51.938;8.464;2022-10-16T10:01:50;18.90;67.80
22098;DHT22;11215;51.938;8.464;2022-10-16T10:04:17;18.90;68.20
22098;DHT22;11215;51.938;8.464;2022-10-16T10:06:54;18.90;68.30
22098;DHT22;11215;51.938;8.464;2022-10-16T10:09:32;19.00;67.90
22098;DHT22;11215;51.938;8.464;2022-10-16T10:12:02;19.00;67.40
22098;DHT22;11215;51.938;8.464;2022-10-16T10:14:48;19.10;67.90
22098;DHT22;11215;51.938;8.464;2022-10-16T10:17:18;19.10;66.60
22098;DHT22;11215;51.938;8.464;2022-10-16T10:20:11;19.20;67.60
22098;DHT22;11215;51.938;8.464;2022-10-16T10:22:44;19.20;66.70
22098;DHT22;11215;51.938;8.464;2022-10-16T10:35:54;19.40;65.50
22098;DHT22;11215;51.938;8.464;2022-10-16T10:49:25;19.70;64.40
22098;DHT22;11215;51.938;8.464;2022-10-16T11:00:26;19.90;63.30
22098;DHT22;11215;51.938;8.464;2022-10-16T11:06:08;19.90;62.30
22098;DHT22;11215;51.938;8.464;2022-10-16T11:11:17;20.00;62.90
22098;DHT22;11215;51.938;8.464;2022-10-16T11:16:53;20.00;62.50
22098;DHT22;11215;51.938;8.464;2022-10-16T11:19:41;20.10;62.20
22098;DHT22;11215;51.938;8.464;2022-10-16T11:22:27;20.20;62.40
22098;DHT22;11215;51.938;8.464;2022-10-16T11:25:13;20.20;62.60
22098;DHT22;11215;51.938;8.464;2022-10-16T11:38:20;20.50;61.70
22098;DHT22;11215;51.938;8.464;2022-10-16T11:40:52;20.50;61.60
22098;DHT22;11215;51.938;8.464;2022-10-16T11:43:26;20.60;61.10
22098;DHT22;11215;51.938;8.464;2022-10-16T11:45:55;20.60;60.50
22098;DHT22;11215;51.938;8.464;2022-10-16T11:48:32;20.60;60.40
22098;DHT22;11215;51.938;8.464;2022-10-16T11:56:27;20.70;60.30
22098;DHT22;11215;51.938;8.464;2022-10-16T11:59:03;20.70;60.50
22098;DHT22;11215;51.938;8.464;2022-10-16T12:01:44;20.70;59.60
22098;DHT22;11215;51.938;8.464;2022-10-16T12:04:22;20.70;60.10
22098;DHT22;11215;51.938;8.464;2022-10-16T12:09:23;20.70;59.70
22098;DHT22;11215;51.938;8.464;2022-10-16T12:11:50;20.70;59.80
22098;DHT22;11215;51.938;8.464;2022-10-16T12:16:57;20.70;59.90
22098;DHT22;11215;51.938;8.464;2022-10-16T12:19:27;20.70;59.10
22098;DHT22;11215;51.938;8.464;2022-10-16T12:21:56;20.70;59.80
22098;DHT22;11215;51.938;8.464;2022-10-16T12:24:41;20.70;59.50
22098;DHT22;11215;51.938;8.464;2022-10-16T12:27:40;20.70;58.90
22098;DHT22;11215;51.938;8.464;2022-10-16T12:30:06;20.70;58.70
22098;DHT22;11215;51.938;8.464;2022-10-16T12:32:37;20.80;59.60
22098;DHT22;11215;51.938;8.464;2022-10-16T12:35:06;20.80;59.50
22098;DHT22;11215;51.938;8.464;2022-10-16T12:37:34;20.80;59.20
22098;DHT22;11215;51.938;8.464;2022-10-16T12:40:13;20.80;58.90
22098;DHT22;11215;51.938;8.464;2022-10-16T12:42:40;20.80;58.40
22098;DHT22;11215;51.938;8.464;2022-10-16T12:47:53;20.80;58.90
22098;DHT22;11215;51.938;8.464;2022-10-16T12:50:45;20.80;59.70
22098;DHT22;11215;51.938;8.464;2022-10-16T12:53:25;20.90;59.10
22098;DHT22;11215;51.938;8.464;2022-10-16T12:56:14;20.90;58.50
22098;DHT22;11215;51.938;8.464;2022-10-16T13:09:13;21.00;58.20
22098;DHT22;11215;51.938;8.464;2022-10-16T13:11:47;21.00;58.40
22098;DHT22;11215;51.938;8.464;2022-10-16T13:14:25;21.00;58.70
22098;DHT22;11215;51.938;8.464;2022-10-16T13:20:51;21.10;58.30
22098;DHT22;11215;51.938;8.464;2022-10-16T13:23:02;21.10;57.10
22098;DHT22;11215;51.938;8.464;2022-10-16T13:30:34;21.20;57.90
22098;DHT22;11215;51.938;8.464;2022-10-16T13:33:05;21.20;57.50
22098;DHT22;11215;51.938;8.464;2022-10-16T13:35:33;21.20;57.70
22098;DHT22;11215;51.938;8.464;2022-10-16T13:38:18;21.20;57.70
22098;DHT22;11215;51.938;8.464;2022-10-16T13:40:59;21.20;56.60
22098;DHT22;11215;51.938;8.464;2022-10-16T13:43:35;21.20;57.10
22098;DHT22;11215;51.938;8.464;2022-10-16T13:46:11;21.20;57.40
22098;DHT22;11215;51.938;8.464;2022-10-16T13:48:38;21.20;57.40
22098;DHT22;11215;51.938;8.464;2022-10-16T13:51:05;21.20;57.60
22098;DHT22;11215;51.938;8.464;2022-10-16T13:53:33;21.20;57.80
22098;DHT22;11215;51.938;8.464;2022-10-16T13:56:00;21.10;57.80
22098;DHT22;11215;51.938;8.464;2022-10-16T13:58:27;21.10;57.90
22098;DHT22;11215;51.938;8.464;2022-10-16T14:00:58;21.10;57.90
22098;DHT22;11215;51.938;8.464;2022-10-16T14:03:26;21.10;57.50
22098;DHT22;11215;51.938;8.464;2022-10-16T14:05:56;21.10;57.80
22098;DHT22;11215;51.938;8.464;2022-10-16T14:08:25;21.10;57.90
22098;DHT22;11215;51.938;8.464;2022-10-16T14:10:53;21.10;58.60
22098;DHT22;11215;51.938;8.464;2022-10-16T14:13:29;21.10;57.90
22098;DHT22;11215;51.938;8.464;2022-10-16T14:15:55;21.10;57.80
22098;DHT22;11215;51.938;8.464;2022-10-16T14:18:25;21.10;57.90
22098;DHT22;11215;51.938;8.464;2022-10-16T14:20:52;21.10;57.80
22098;DHT22;11215;51.938;8.464;2022-10-16T14:23:22;21.10;57.90
22098;DHT22;11215;51.938;8.464;2022-10-16T14:25:49;21.10;57.70
22098;DHT22;11215;51.938;8.464;2022-10-16T14:28:22;21.10;58.10
22098;DHT22;11215;51.938;8.464;2022-10-16T14:30:56;21.10;57.90
22098;DHT22;11215;51.938;8.464;2022-10-16T14:33:32;21.10;57.50
22098;DHT22;11215;51.938;8.464;2022-10-16T14:36:19;21.10;57.90
22098;DHT22;11215;51.938;8.464;2022-10-16T14:39:04;21.10;57.50
22098;DHT22;11215;51.938;8.464;2022-10-16T14:41:43;21.10;57.50
22098;DHT22;11215;51.938;8.464;2022-10-16T14:44:11;21.10;57.30
22098;DHT22;11215;51.938;8.464;2022-10-16T14:46:39;21.10;58.00
22098;DHT22;11215;51.938;8.464;2022-10-16T14:51:38;21.10;58.10
22098;DHT22;11215;51.938;8.464;2022-10-16T14:54:11;21.10;58.10
22098;DHT22;11215;51.938;8.464;2022-10-16T14:59:17;21.10;58.10
22098;DHT22;11215;51.938;8.464;2022-10-16T15:01:45;21.10;57.90
22098;DHT22;11215;51.938;8.464;2022-10-16T15:04:12;21.10;57.90
22098;DHT22;11215;51.938;8.464;2022-10-16T15:06:39;21.00;57.90
22098;DHT22;11215;51.938;8.464;2022-10-16T15:09:04;21.10;57.80
22098;DHT22;11215;51.938;8.464;2022-10-16T15:11:31;21.00;57.60
22098;DHT22;11215;51.938;8.464;2022-10-16T15:13:57;21.00;57.60
22098;DHT22;11215;51.938;8.464;2022-10-16T15:16:23;21.00;57.90
22098;DHT22;11215;51.938;8.464;2022-10-16T15:18:49;21.00;57.90
22098;DHT22;11215;51.938;8.464;2022-10-16T15:21:28;21.00;57.90
22098;DHT22;11215;51.938;8.464;2022-10-16T15:23:55;21.00;57.60
22098;DHT22;11215;51.938;8.464;2022-10-16T15:26:26;21.00;57.80
22098;DHT22;11215;51.938;8.464;2022-10-16T15:28:52;20.90;58.00
22098;DHT22;11215;51.938;8.464;2022-10-16T15:31:18;20.90;58.00
22098;DHT22;11215;51.938;8.464;2022-10-16T15:33:43;20.90;58.00
22098;DHT22;11215;51.938;8.464;2022-10-16T15:36:13;20.90;58.00
22098;DHT22;11215;51.938;8.464;2022-10-16T15:38:39;20.80;58.00
22098;DHT22;11215;51.938;8.464;2022-10-16T15:41:04;20.80;58.20
22098;DHT22;11215;51.938;8.464;2022-10-16T15:43:30;20.80;58.20
22098;DHT22;11215;51.938;8.464;2022-10-16T15:46:03;20.70;58.10
22098;DHT22;11215;51.938;8.464;2022-10-16T15:48:30;20.70;58.50
22098;DHT22;11215;51.938;8.464;2022-10-16T15:50:55;20.70;57.90
22098;DHT22;11215;51.938;8.464;2022-10-16T15:53:21;20.70;57.90
22098;DHT22;11215;51.938;8.464;2022-10-16T15:55:47;20.60;57.90
22098;DHT22;11215;51.938;8.464;2022-10-16T15:58:13;20.50;57.80
22098;DHT22;11215;51.938;8.464;2022-10-16T16:00:38;20.50;58.00
22098;DHT22;11215;51.938;8.464;2022-10-16T16:03:04;20.50;58.10
22098;DHT22;11215;51.938;8.464;2022-10-16T16:05:30;20.40;58.20
22098;DHT22;11215;51.938;8.464;2022-10-16T16:07:56;20.30;58.50
22098;DHT22;11215;51.938;8.464;2022-10-16T16:10:22;20.30;58.60
22098;DHT22;11215;51.938;8.464;2022-10-16T16:12:48;20.20;58.70
22098;DHT22;11215;51.938;8.464;2022-10-16T16:15:17;20.20;58.90
22098;DHT22;11215;51.938;8.464;2022-10-16T16:17:43;20.10;59.00
22098;DHT22;11215;51.938;8.464;2022-10-16T16:20:10;20.10;59.00
22098;DHT22;11215;51.938;8.464;2022-10-16T16:22:36;20.10;59.20
22098;DHT22;11215;51.938;8.464;2022-10-16T16:25:02;20.00;59.40
22098;DHT22;11215;51.938;8.464;2022-10-16T16:27:29;20.00;59.60
22098;DHT22;11215;51.938;8.464;2022-10-16T16:29:59;20.00;59.80
22098;DHT22;11215;51.938;8.464;2022-10-16T16:32:25;19.90;59.80
22098;DHT22;11215;51.938;8.464;2022-10-16T16:34:50;19.90;59.90
22098;DHT22;11215;51.938;8.464;2022-10-16T16:37:17;19.80;59.90
22098;DHT22;11215;51.938;8.464;2022-10-16T16:39:43;19.80;60.00
22098;DHT22;11215;51.938;8.464;2022-10-16T16:42:09;19.70;60.10
22098;DHT22;11215;51.938;8.464;2022-10-16T16:44:36;19.70;60.30
22098;DHT22;11215;51.938;8.464;2022-10-16T16:47:03;19.70;60.50
22098;DHT22;11215;51.938;8.464;2022-10-16T16:49:29;19.70;60.80
22098;DHT22;11215;51.938;8.464;2022-10-16T16:51:55;19.60;61.00
22098;DHT22;11215;51.938;8.464;2022-10-16T16:54:21;19.60;61.10
22098;DHT22;11215;51.938;8.464;2022-10-16T16:56:47;19.60;61.10
22098;DHT22;11215;51.938;8.464;2022-10-16T16:59:15;19.50;61.20
22098;DHT22;11215;51.938;8.464;2022-10-16T17:01:42;19.50;61.40
22098;DHT22;11215;51.938;8.464;2022-10-16T17:04:08;19.40;61.40
22098;DHT22;11215;51.938;8.464;2022-10-16T17:06:34;19.50;61.60
22098;DHT22;11215;51.938;8.464;2022-10-16T17:09:01;19.50;61.80
22098;DHT22;11215;51.938;8.464;2022-10-16T17:11:28;19.40;61.80
22098;DHT22;11215;51.938;8.464;2022-10-16T17:13:56;19.40;62.00
22098;DHT22;11215;51.938;8.464;2022-10-16T17:16:24;19.30;62.00
22098;DHT22;11215;51.938;8.464;2022-10-16T17:18:51;19.30;62.10
22098;DHT22;11215;51.938;8.464;2022-10-16T17:21:18;19.30;62.20
22098;DHT22;11215;51.938;8.464;2022-10-16T17:23:45;19.30;62.40
22098;DHT22;11215;51.938;8.464;2022-10-16T17:26:16;19.30;62.60
22098;DHT22;11215;51.938;8.464;2022-10-16T17:28:43;19.20;62.90
22098;DHT22;11215;51.938;8.464;2022-10-16T17:31:17;19.20;62.80
22098;DHT22;11215;51.938;8.464;2022-10-16T17:33:44;19.20;62.90
22098;DHT22;11215;51.938;8.464;2022-10-16T17:36:10;19.20;62.90
22098;DHT22;11215;51.938;8.464;2022-10-16T17:38:39;19.20;63.10
22098;DHT22;11215;51.938;8.464;2022-10-16T17:41:13;19.20;63.00
22098;DHT22;11215;51.938;8.464;2022-10-16T17:43:39;19.10;63.30
22098;DHT22;11215;51.938;8.464;2022-10-16T17:46:06;19.10;63.00
22098;DHT22;11215;51.938;8.464;2022-10-16T17:48:35;19.10;63.10
22098;DHT22;11215;51.938;8.464;2022-10-16T17:51:04;19.10;63.10
22098;DHT22;11215;51.938;8.464;2022-10-16T17:53:30;19.00;63.10
22098;DHT22;11215;51.938;8.464;2022-10-16T17:56:00;19.00;63.10
22098;DHT22;11215;51.938;8.464;2022-10-16T17:58:26;19.00;63.20
22098;DHT22;11215;51.938;8.464;2022-10-16T18:00:52;19.00;63.40